createdAt,value
2023-02-07T00:04:01.858Z,13.43
2023-02-07T00:09:06.809Z,15.47
2023-02-07T00:14:12.336Z,18.93
2023-02-07T00:19:14.943Z,21.37
2023-02-07T00:24:17.127Z,20.67
2023-02-07T00:29:20.836Z,19.17
2023-02-07T00:34:23.084Z,15.27
2023-02-07T00:39:25.971Z,20.53
2023-02-07T00:44:29.779Z,12.00
2023-02-07T00:49:31.597Z,18.47
2023-02-07T00:54:33.852Z,11.37
2023-02-07T00:59:37.369Z,12.00
2023-02-07T01:04:39.682Z,13.70
2023-02-07T01:09:42.218Z,15.50
2023-02-07T01:14:45.735Z,16.00
2023-02-07T01:19:48.290Z,15.20
2023-02-07T01:24:50.264Z,14.07
2023-02-07T01:29:53.584Z,18.13
2023-02-07T01:34:55.497Z,16.03
2023-02-07T01:39:57.716Z,21.57
2023-02-07T01:45:12.714Z,20.67
2023-02-07T01:50:15.082Z,16.30
2023-02-07T01:55:20.880Z,19.17
2023-02-07T02:00:24.396Z,19.30
2023-02-07T02:05:27.748Z,13.43
2023-02-07T02:10:44.200Z,27.13
2023-02-07T02:15:56.852Z,14.70
2023-02-07T02:21:51.775Z,19.33
2023-02-07T02:27:03.555Z,23.47
2023-02-07T02:32:55.390Z,18.20
2023-02-07T02:38:06.100Z,19.87
2023-02-07T02:43:14.425Z,16.83
2023-02-07T02:48:19.019Z,17.57
2023-02-07T02:53:22.037Z,14.63
2023-02-07T02:58:33.230Z,15.57
2023-02-07T03:03:54.943Z,16.07
2023-02-07T03:09:06.353Z,11.83
2023-02-07T03:14:18.542Z,14.93
2023-02-07T03:19:25.023Z,13.90
2023-02-07T03:24:30.936Z,17.60
2023-02-07T03:29:36.308Z,14.37
2023-02-07T03:34:44.762Z,17.30
2023-02-07T03:39:47.363Z,12.60
2023-02-07T03:44:52.334Z,17.30
2023-02-07T03:49:56.252Z,19.40
2023-02-07T03:54:58.193Z,13.80
2023-02-07T04:00:00.951Z,15.73
2023-02-07T04:05:04.630Z,10.63
2023-02-07T04:10:07.361Z,17.10
2023-02-07T04:15:10.098Z,16.03
2023-02-07T04:20:14.067Z,16.63
2023-02-07T04:25:16.194Z,12.50
2023-02-07T04:30:18.079Z,13.77
2023-02-07T04:35:21.656Z,14.17
2023-02-07T04:40:23.626Z,23.27
2023-02-07T04:45:26.125Z,19.93
2023-02-07T04:50:29.663Z,14.33
2023-02-07T04:55:31.827Z,16.83
2023-02-07T05:00:34.710Z,13.30
2023-02-07T05:05:40.291Z,19.20
2023-02-07T05:10:42.243Z,14.30
2023-02-07T05:15:44.387Z,14.87
2023-02-07T05:20:47.646Z,15.27
2023-02-07T05:25:49.864Z,16.27
2023-02-07T05:30:53.669Z,15.00
2023-02-07T05:35:56.788Z,13.10
2023-02-07T05:40:58.986Z,10.97
2023-02-07T05:46:01.319Z,11.67
2023-02-07T05:51:04.960Z,11.23
2023-02-07T05:56:07.256Z,13.77
2023-02-07T06:01:09.014Z,12.03
2023-02-07T06:06:12.853Z,17.03
2023-02-07T06:11:15.342Z,15.33
2023-02-07T06:16:17.298Z,9.43
2023-02-07T06:21:20.497Z,15.77
2023-02-07T06:26:22.337Z,10.30
2023-02-07T06:31:24.306Z,14.60
2023-02-07T06:36:27.810Z,13.47
2023-02-07T06:41:30.004Z,10.47
2023-02-07T06:46:32.338Z,14.77
2023-02-07T06:51:36.347Z,10.30
2023-02-07T06:56:38.238Z,19.10
2023-02-07T07:01:40.260Z,11.80
2023-02-07T07:06:43.365Z,8.70
2023-02-07T07:11:45.101Z,11.70
2023-02-07T07:16:47.596Z,10.60
2023-02-07T07:21:50.777Z,13.07
2023-02-07T07:26:53.391Z,14.57
2023-02-07T07:31:55.445Z,13.43
2023-02-07T07:36:58.800Z,13.43
2023-02-07T07:42:00.800Z,16.13
2023-02-07T07:47:03.078Z,15.23
2023-02-07T07:52:07.017Z,11.93
2023-02-07T07:57:09.424Z,14.33
2023-02-07T08:02:12.800Z,16.97
2023-02-07T08:07:16.159Z,16.77
2023-02-07T08:12:18.282Z,12.50
2023-02-07T08:17:20.401Z,17.73
2023-02-07T08:22:23.563Z,19.63
2023-02-07T08:27:25.779Z,18.47
2023-02-07T08:32:27.699Z,14.37
2023-02-07T08:37:31.026Z,15.47
2023-02-07T08:42:33.524Z,14.47
2023-02-07T08:47:35.824Z,19.33
2023-02-07T08:52:39.301Z,19.20
2023-02-07T08:57:41.155Z,25.03
2023-02-07T09:02:43.270Z,20.13
2023-02-07T09:07:46.815Z,20.47
2023-02-07T09:12:48.858Z,19.33
2023-02-07T09:17:51.104Z,18.73
2023-02-07T09:22:54.282Z,16.60
2023-02-07T09:27:56.622Z,20.20
2023-02-07T09:32:58.397Z,17.00
2023-02-07T09:38:02.404Z,22.40
2023-02-07T09:43:14.607Z,16.60
2023-02-07T09:48:21.834Z,16.10
2023-02-07T09:53:30.062Z,21.27
2023-02-07T09:58:40.872Z,21.50
2023-02-07T10:04:05.491Z,20.43
2023-02-07T10:09:16.628Z,18.40
2023-02-07T10:14:32.046Z,18.03
2023-02-07T10:19:46.989Z,18.90
2023-02-07T10:25:19.861Z,18.67
2023-02-07T10:30:26.980Z,17.43
2023-02-07T10:35:34.322Z,15.30
2023-02-07T10:40:44.906Z,11.93
2023-02-07T10:45:51.895Z,12.17
2023-02-07T10:51:01.352Z,12.80
2023-02-07T10:56:04.801Z,12.57
2023-02-07T11:01:19.415Z,13.87
2023-02-07T11:06:26.053Z,13.10
2023-02-07T11:11:32.706Z,13.77
2023-02-07T11:16:35.944Z,13.30
2023-02-07T11:21:40.894Z,13.60
2023-02-07T11:26:54.797Z,11.90
2023-02-07T11:31:59.774Z,13.60
2023-02-07T11:37:11.200Z,10.13
2023-02-07T11:42:18.733Z,9.47
2023-02-07T11:47:25.362Z,13.03
2023-02-07T11:52:27.700Z,10.23
2023-02-07T11:57:33.346Z,11.07
2023-02-07T12:02:36.071Z,10.20
2023-02-07T12:07:43.189Z,12.07
2023-02-07T12:12:50.269Z,8.47
2023-02-07T12:17:59.649Z,10.73
2023-02-07T12:23:34.575Z,11.73
2023-02-07T12:28:35.554Z,10.40
2023-02-07T12:33:45.760Z,8.07
2023-02-07T12:38:54.729Z,10.77
2023-02-07T12:44:08.461Z,16.00
2023-02-07T12:49:28.190Z,7.30
2023-02-07T12:54:43.706Z,8.70
2023-02-07T12:59:57.672Z,5.93
2023-02-07T13:05:25.907Z,7.27
2023-02-07T13:10:37.359Z,7.30
2023-02-07T13:15:47.594Z,6.83
2023-02-07T13:21:01.648Z,9.00
2023-02-07T13:26:09.280Z,8.43
2023-02-07T13:31:16.805Z,7.10
2023-02-07T13:36:28.495Z,6.83
2023-02-07T13:41:39.064Z,7.63
2023-02-07T13:47:13.255Z,6.33
2023-02-07T13:52:22.891Z,5.20
2023-02-07T13:57:39.896Z,5.70
2023-02-07T14:02:47.351Z,4.57
2023-02-07T14:08:02.405Z,3.13
2023-02-07T14:13:05.766Z,4.87
2023-02-07T14:18:37.802Z,4.07
2023-02-07T14:24:04.213Z,5.40
2023-02-07T14:29:34.441Z,4.80
2023-02-07T14:35:00.767Z,4.77
2023-02-07T14:40:08.317Z,6.17
2023-02-07T14:45:18.859Z,5.10
2023-02-07T14:50:24.911Z,5.03
2023-02-07T14:55:32.934Z,4.57
2023-02-07T15:00:44.938Z,5.17
2023-02-07T15:05:54.232Z,3.60
2023-02-07T15:10:58.364Z,6.53
2023-02-07T15:16:04.514Z,4.97
2023-02-07T15:21:17.700Z,6.27
2023-02-07T15:26:20.252Z,6.50
2023-02-07T15:31:22.459Z,6.60
2023-02-07T15:36:32.932Z,7.27
2023-02-07T15:41:34.935Z,7.63
2023-02-07T15:46:44.947Z,8.10
2023-02-07T15:51:51.298Z,6.83
2023-02-07T15:57:00.213Z,9.97
2023-02-07T16:02:03.300Z,7.73
2023-02-07T16:07:13.794Z,6.67
2023-02-07T16:12:43.339Z,6.00
2023-02-07T16:17:45.114Z,5.70
2023-02-07T16:22:48.848Z,12.53
2023-02-07T16:27:52.302Z,8.10
2023-02-07T16:32:54.289Z,6.20
2023-02-07T16:37:57.514Z,5.07
2023-02-07T16:43:02.178Z,6.10
2023-02-07T16:48:09.924Z,7.70
2023-02-07T16:53:13.630Z,6.97
2023-02-07T16:58:24.977Z,6.27
2023-02-07T17:03:28.906Z,6.57
2023-02-07T17:08:32.191Z,5.60
2023-02-07T17:13:34.111Z,7.00
2023-02-07T17:18:36.287Z,8.40
2023-02-07T17:23:39.490Z,4.87
2023-02-07T17:28:41.557Z,5.00
2023-02-07T17:33:43.961Z,5.47
2023-02-07T17:38:47.873Z,8.23
2023-02-07T17:43:50.271Z,6.90
2023-02-07T17:48:53.307Z,6.97
2023-02-07T17:53:57.044Z,4.60
2023-02-07T17:59:02.427Z,9.87
2023-02-07T18:04:05.182Z,3.83
2023-02-07T18:09:15.164Z,7.20
2023-02-07T18:14:17.194Z,6.23
2023-02-07T18:19:19.423Z,4.83
2023-02-07T18:24:22.557Z,6.97
2023-02-07T18:29:24.428Z,5.67
2023-02-07T18:34:26.634Z,15.27
2023-02-07T18:39:29.867Z,7.33
2023-02-07T18:44:32.236Z,19.00
2023-02-07T18:49:35.260Z,9.20
2023-02-07T18:54:39.531Z,13.60
2023-02-07T18:59:41.438Z,11.53
2023-02-07T19:04:43.621Z,11.40
2023-02-07T19:09:47.207Z,10.20
2023-02-07T19:14:49.599Z,7.00
2023-02-07T19:19:51.740Z,10.10
2023-02-07T19:24:55.216Z,11.03
2023-02-07T19:29:57.152Z,7.57
2023-02-07T19:34:59.487Z,8.97
2023-02-07T19:40:03.623Z,9.83
2023-02-07T19:45:06.229Z,10.20
2023-02-07T19:50:09.686Z,8.33
2023-02-07T19:55:13.709Z,6.17
2023-02-07T20:00:20.077Z,8.40
2023-02-07T20:05:22.550Z,8.43
2023-02-07T20:10:25.748Z,8.00
2023-02-07T20:15:28.129Z,8.50
2023-02-07T20:20:30.461Z,8.03
2023-02-07T20:25:35.997Z,8.97
2023-02-07T20:30:43.785Z,5.83
2023-02-07T20:35:46.747Z,8.80
2023-02-07T20:40:50.431Z,6.77
2023-02-07T20:46:02.890Z,7.87
2023-02-07T20:51:05.654Z,6.73
2023-02-07T20:56:11.969Z,9.27
2023-02-07T21:01:16.401Z,8.40
2023-02-07T21:06:19.375Z,7.40
2023-02-07T21:11:23.120Z,7.23
2023-02-07T21:16:25.024Z,8.93
2023-02-07T21:21:28.626Z,6.33
2023-02-07T21:26:32.435Z,9.20
2023-02-07T21:31:36.136Z,8.37
2023-02-07T21:36:39.350Z,7.87
2023-02-07T21:41:45.415Z,6.27
2023-02-07T21:46:47.813Z,9.23
2023-02-07T21:51:50.767Z,6.30
2023-02-07T21:56:56.301Z,6.47
2023-02-07T22:01:58.472Z,5.80
2023-02-07T22:07:01.133Z,7.10
2023-02-07T22:12:04.532Z,7.50
2023-02-07T22:17:06.532Z,6.13
2023-02-07T22:22:08.784Z,8.60
2023-02-07T22:27:12.473Z,8.83
2023-02-07T22:32:14.581Z,9.93
2023-02-07T22:37:16.913Z,6.00
2023-02-07T22:42:20.380Z,9.60
2023-02-07T22:47:22.950Z,7.07
2023-02-07T22:52:25.095Z,6.30
2023-02-07T22:57:28.649Z,8.73
2023-02-07T23:02:30.836Z,7.33
2023-02-07T23:07:32.885Z,8.63
2023-02-07T23:12:36.571Z,6.37
2023-02-07T23:17:38.548Z,7.83
2023-02-07T23:22:40.841Z,8.80
2023-02-07T23:27:45.724Z,9.43
2023-02-07T23:32:48.120Z,8.53
2023-02-07T23:37:50.241Z,7.27
2023-02-07T23:42:53.872Z,8.70
2023-02-07T23:47:56.446Z,14.27
2023-02-07T23:52:58.173Z,6.40
2023-02-07T23:58:01.972Z,8.87
